Terminal Aerodrome Forecast
Issued by NWS Corpus Christi, TX

Current Version | Previous Version | Text Only | Print | Product List | Glossary Off
Versions: 1 2 3 4 5 6 7 8 9 10 11 12 13 14 15 16 17

000
FTUS44 KCRP 300500
TAFVCT
TAF
KVCT 300521Z 3006/3106 03006KT P6SM FEW006 SCT040
      TEMPO 3006/3008 4SM BR SCT005 BKN040
     FM300800 02013KT P6SM BKN040 BKN120
     FM301600 05012KT P6SM BKN035 OVC120
     FM302100 07009KT P6SM BKN035 OVC200
     FM310200 09008KT P6SM BKN025 OVC200=

USA.gov is the U.S. government's official web portal to all federal, state and local government web resources and services.